sensor_id;sensor_type;location;lat;lon;timestamp;pressure;altitude;pressure_sealevel;temperature;humidity
73242;BME280;65659;49.234;-2.094;2023-01-29T00:00:47;102065.11;;;21.77;21.67
73242;BME280;65659;49.234;-2.094;2023-01-29T00:03:08;102065.63;;;22.11;21.67
73242;BME280;65659;49.234;-2.094;2023-01-29T00:05:34;102066.07;;;22.62;21.65
73242;BME280;65659;49.234;-2.094;2023-01-29T00:08:01;102058.60;;;22.38;21.55
73242;BME280;65659;49.234;-2.094;2023-01-29T00:10:26;102057.59;;;22.79;21.66
73242;BME280;65659;49.234;-2.094;2023-01-29T00:12:51;102055.57;;;22.50;21.68
73242;BME280;65659;49.234;-2.094;2023-01-29T00:15:18;102058.86;;;22.72;21.63
73242;BME280;65659;49.234;-2.094;2023-01-29T00:17:43;102059.71;;;22.48;21.66
73242;BME280;65659;49.234;-2.094;2023-01-29T00:20:10;102060.99;;;22.66;21.74
73242;BME280;65659;49.234;-2.094;2023-01-29T00:22:34;102067.16;;;22.44;21.70
73242;BME280;65659;49.234;-2.094;2023-01-29T00:25:01;102069.87;;;21.92;21.70
73242;BME280;65659;49.234;-2.094;2023-01-29T00:27:26;102069.00;;;22.48;21.66
73242;BME280;65659;49.234;-2.094;2023-01-29T00:29:51;102069.56;;;22.69;21.70
73242;BME280;65659;49.234;-2.094;2023-01-29T00:32:17;102070.91;;;22.42;21.75
73242;BME280;65659;49.234;-2.094;2023-01-29T00:34:43;102075.44;;;22.42;21.77
73242;BME280;65659;49.234;-2.094;2023-01-29T00:37:09;102074.77;;;22.50;21.69
73242;BME280;65659;49.234;-2.094;2023-01-29T00:39:34;102075.34;;;22.52;21.77
73242;BME280;65659;49.234;-2.094;2023-01-29T00:42:00;102069.70;;;22.72;21.74
73242;BME280;65659;49.234;-2.094;2023-01-29T00:44:26;102069.81;;;22.46;21.82
73242;BME280;65659;49.234;-2.094;2023-01-29T00:46:52;102069.18;;;22.45;21.78
73242;BME280;65659;49.234;-2.094;2023-01-29T00:49:18;102068.26;;;22.68;21.87
73242;BME280;65659;49.234;-2.094;2023-01-29T00:51:43;102068.13;;;22.44;21.96
73242;BME280;65659;49.234;-2.094;2023-01-29T00:54:09;102072.78;;;22.65;21.87
73242;BME280;65659;49.234;-2.094;2023-01-29T00:56:35;102072.27;;;22.41;21.86
73242;BME280;65659;49.234;-2.094;2023-01-29T00:59:00;102061.50;;;22.89;21.85
73242;BME280;65659;49.234;-2.094;2023-01-29T01:01:26;102045.98;;;22.42;21.87
73242;BME280;65659;49.234;-2.094;2023-01-29T01:03:52;102029.94;;;22.40;21.85
73242;BME280;65659;49.234;-2.094;2023-01-29T01:06:18;102021.82;;;22.63;21.84
73242;BME280;65659;49.234;-2.094;2023-01-29T01:08:43;102023.18;;;22.62;21.88
73242;BME280;65659;49.234;-2.094;2023-01-29T01:11:09;102031.23;;;22.38;21.86
73242;BME280;65659;49.234;-2.094;2023-01-29T01:13:35;102037.09;;;22.40;21.88
73242;BME280;65659;49.234;-2.094;2023-01-29T01:16:00;102040.19;;;22.66;21.83
73242;BME280;65659;49.234;-2.094;2023-01-29T01:18:29;102036.28;;;22.93;21.84
73242;BME280;65659;49.234;-2.094;2023-01-29T01:20:56;102035.59;;;22.46;21.82
73242;BME280;65659;49.234;-2.094;2023-01-29T01:23:18;102028.74;;;22.67;21.83
73242;BME280;65659;49.234;-2.094;2023-01-29T01:25:43;102020.48;;;22.46;21.81
73242;BME280;65659;49.234;-2.094;2023-01-29T01:28:09;102015.00;;;22.47;21.86
73242;BME280;65659;49.234;-2.094;2023-01-29T01:30:35;102016.00;;;22.50;21.86
73242;BME280;65659;49.234;-2.094;2023-01-29T01:33:01;102009.99;;;22.49;21.91
73242;BME280;65659;49.234;-2.094;2023-01-29T01:35:26;101998.57;;;22.71;21.85
73242;BME280;65659;49.234;-2.094;2023-01-29T01:37:52;101991.22;;;22.69;21.88
73242;BME280;65659;49.234;-2.094;2023-01-29T01:40:20;101988.18;;;22.70;21.90
73242;BME280;65659;49.234;-2.094;2023-01-29T01:42:44;101984.49;;;22.52;21.85
73242;BME280;65659;49.234;-2.094;2023-01-29T01:45:19;101985.91;;;22.56;21.85
73242;BME280;65659;49.234;-2.094;2023-01-29T01:47:39;101990.04;;;22.75;21.84
73242;BME280;65659;49.234;-2.094;2023-01-29T01:50:06;101998.45;;;22.72;21.89
73242;BME280;65659;49.234;-2.094;2023-01-29T01:52:28;102000.80;;;22.70;21.84
73242;BME280;65659;49.234;-2.094;2023-01-29T01:54:52;102001.45;;;22.91;21.91
73242;BME280;65659;49.234;-2.094;2023-01-29T01:57:20;102003.34;;;22.66;21.93
73242;BME280;65659;49.234;-2.094;2023-01-29T01:59:49;102000.29;;;22.65;21.92
73242;BME280;65659;49.234;-2.094;2023-01-29T02:02:10;102006.64;;;22.64;21.94
73242;BME280;65659;49.234;-2.094;2023-01-29T02:04:35;102002.93;;;22.90;21.95
73242;BME280;65659;49.234;-2.094;2023-01-29T02:07:03;102002.80;;;22.44;21.97
73242;BME280;65659;49.234;-2.094;2023-01-29T02:09:30;102003.77;;;22.74;21.90
73242;BME280;65659;49.234;-2.094;2023-01-29T02:11:52;102000.88;;;22.96;21.91
73242;BME280;65659;49.234;-2.094;2023-01-29T02:14:19;101998.09;;;22.49;21.93
73242;BME280;65659;49.234;-2.094;2023-01-29T02:16:44;101996.46;;;22.57;21.96
73242;BME280;65659;49.234;-2.094;2023-01-29T02:19:15;101993.11;;;22.57;21.92
73242;BME280;65659;49.234;-2.094;2023-01-29T02:21:51;101987.32;;;22.57;21.90
73242;BME280;65659;49.234;-2.094;2023-01-29T02:24:15;101985.96;;;22.56;21.89
73242;BME280;65659;49.234;-2.094;2023-01-29T02:26:39;101984.20;;;22.56;21.87
73242;BME280;65659;49.234;-2.094;2023-01-29T02:28:58;101986.90;;;22.55;21.90
73242;BME280;65659;49.234;-2.094;2023-01-29T02:31:26;101980.30;;;22.52;21.90
73242;BME280;65659;49.234;-2.094;2023-01-29T02:33:52;101976.90;;;22.75;21.94
73242;BME280;65659;49.234;-2.094;2023-01-29T02:36:18;101979.23;;;22.58;21.88
73242;BME280;65659;49.234;-2.094;2023-01-29T02:38:40;101982.94;;;22.84;21.84
73242;BME280;65659;49.234;-2.094;2023-01-29T02:41:04;101985.62;;;22.59;21.83
73242;BME280;65659;49.234;-2.094;2023-01-29T02:43:30;101985.15;;;22.55;21.88
73242;BME280;65659;49.234;-2.094;2023-01-29T02:45:59;101982.03;;;22.78;21.91
73242;BME280;65659;49.234;-2.094;2023-01-29T02:48:21;101981.23;;;22.06;21.89
73242;BME280;65659;49.234;-2.094;2023-01-29T02:50:49;101980.05;;;22.56;21.87
73242;BME280;65659;49.234;-2.094;2023-01-29T02:53:14;101979.88;;;22.54;21.89
73242;BME280;65659;49.234;-2.094;2023-01-29T02:55:39;101977.12;;;22.51;21.94
73242;BME280;65659;49.234;-2.094;2023-01-29T02:58:08;101975.96;;;22.76;21.94
73242;BME280;65659;49.234;-2.094;2023-01-29T03:00:31;101969.08;;;22.51;21.98
73242;BME280;65659;49.234;-2.094;2023-01-29T03:02:56;101967.43;;;22.53;21.95
73242;BME280;65659;49.234;-2.094;2023-01-29T03:05:24;101966.46;;;22.36;21.93
73242;BME280;65659;49.234;-2.094;2023-01-29T03:07:49;101969.38;;;22.66;21.88
73242;BME280;65659;49.234;-2.094;2023-01-29T03:10:16;101970.39;;;22.68;21.87
73242;BME280;65659;49.234;-2.094;2023-01-29T03:12:38;101969.12;;;22.20;21.74
73242;BME280;65659;49.234;-2.094;2023-01-29T03:15:04;101962.68;;;23.10;21.52
73242;BME280;65659;49.234;-2.094;2023-01-29T03:17:32;101966.26;;;22.87;21.62
73242;BME280;65659;49.234;-2.094;2023-01-29T03:19:53;101967.68;;;22.77;21.76
73242;BME280;65659;49.234;-2.094;2023-01-29T03:22:19;101966.65;;;22.72;21.81
73242;BME280;65659;49.234;-2.094;2023-01-29T03:24:47;101967.36;;;22.46;21.84
73242;BME280;65659;49.234;-2.094;2023-01-29T03:27:11;101970.55;;;22.67;21.84
73242;BME280;65659;49.234;-2.094;2023-01-29T03:29:37;101971.45;;;22.65;21.90
73242;BME280;65659;49.234;-2.094;2023-01-29T03:32:01;101972.14;;;22.86;21.87
73242;BME280;65659;49.234;-2.094;2023-01-29T03:34:29;101969.14;;;22.59;21.94
73242;BME280;65659;49.234;-2.094;2023-01-29T03:36:56;101968.57;;;23.03;21.96
73242;BME280;65659;49.234;-2.094;2023-01-29T03:39:19;101971.66;;;22.52;22.00
73242;BME280;65659;49.234;-2.094;2023-01-29T03:41:47;101964.02;;;22.56;21.94
73242;BME280;65659;49.234;-2.094;2023-01-29T03:44:14;101968.98;;;22.34;22.01
73242;BME280;65659;49.234;-2.094;2023-01-29T03:46:43;101969.59;;;22.60;22.00
73242;BME280;65659;49.234;-2.094;2023-01-29T03:49:05;101972.14;;;22.57;22.04
73242;BME280;65659;49.234;-2.094;2023-01-29T03:51:32;101969.93;;;22.55;22.05
73242;BME280;65659;49.234;-2.094;2023-01-29T03:54:00;101962.82;;;22.56;22.05
73242;BME280;65659;49.234;-2.094;2023-01-29T03:56:31;101962.08;;;22.83;22.04
73242;BME280;65659;49.234;-2.094;2023-01-29T03:58:48;101962.46;;;22.58;22.09
73242;BME280;65659;49.234;-2.094;2023-01-29T04:01:15;101965.59;;;22.57;22.09
73242;BME280;65659;49.234;-2.094;2023-01-29T04:03:38;101963.15;;;22.56;22.12
73242;BME280;65659;49.234;-2.094;2023-01-29T04:06:08;101958.88;;;22.54;22.12
73242;BME280;65659;49.234;-2.094;2023-01-29T04:08:31;101955.62;;;23.01;22.10
73242;BME280;65659;49.234;-2.094;2023-01-29T04:10:56;101958.01;;;22.78;22.08
73242;BME280;65659;49.234;-2.094;2023-01-29T04:13:19;101956.49;;;22.53;22.13
73242;BME280;65659;49.234;-2.094;2023-01-29T04:15:48;101953.99;;;22.78;22.04
73242;BME280;65659;49.234;-2.094;2023-01-29T04:18:11;101952.98;;;22.77;22.10
73242;BME280;65659;49.234;-2.094;2023-01-29T04:20:37;101952.31;;;22.55;22.08
73242;BME280;65659;49.234;-2.094;2023-01-29T04:23:05;101954.99;;;22.57;22.04
73242;BME280;65659;49.234;-2.094;2023-01-29T04:25:33;101949.28;;;22.78;22.09
73242;BME280;65659;49.234;-2.094;2023-01-29T04:28:00;101952.45;;;22.76;22.10
73242;BME280;65659;49.234;-2.094;2023-01-29T04:30:25;101949.74;;;22.54;22.10
73242;BME280;65659;49.234;-2.094;2023-01-29T04:32:56;101947.31;;;22.54;22.07
73242;BME280;65659;49.234;-2.094;2023-01-29T04:35:19;101944.56;;;22.77;22.14
73242;BME280;65659;49.234;-2.094;2023-01-29T04:37:41;101945.70;;;22.55;22.14
73242;BME280;65659;49.234;-2.094;2023-01-29T04:40:12;101947.61;;;22.62;22.05
73242;BME280;65659;49.234;-2.094;2023-01-29T04:42:32;101946.28;;;22.64;22.07
73242;BME280;65659;49.234;-2.094;2023-01-29T04:44:59;101944.49;;;22.89;22.07
73242;BME280;65659;49.234;-2.094;2023-01-29T04:47:26;101944.43;;;22.61;22.14
73242;BME280;65659;49.234;-2.094;2023-01-29T04:49:48;101940.24;;;22.58;22.13
73242;BME280;65659;49.234;-2.094;2023-01-29T04:52:16;101941.15;;;22.58;22.16
73242;BME280;65659;49.234;-2.094;2023-01-29T04:54:48;101936.78;;;22.56;22.18
73242;BME280;65659;49.234;-2.094;2023-01-29T04:57:08;101934.05;;;22.56;22.15
73242;BME280;65659;49.234;-2.094;2023-01-29T04:59:31;101933.92;;;22.57;22.20
73242;BME280;65659;49.234;-2.094;2023-01-29T05:01:54;101933.03;;;22.60;22.10
73242;BME280;65659;49.234;-2.094;2023-01-29T05:04:20;101936.37;;;22.57;22.17
73242;BME280;65659;49.234;-2.094;2023-01-29T05:06:45;101936.24;;;22.77;22.14
73242;BME280;65659;49.234;-2.094;2023-01-29T05:09:12;101932.13;;;22.76;22.21
73242;BME280;65659;49.234;-2.094;2023-01-29T05:11:37;101931.29;;;22.51;22.22
73242;BME280;65659;49.234;-2.094;2023-01-29T05:14:05;101931.45;;;22.75;22.21
73242;BME280;65659;49.234;-2.094;2023-01-29T05:16:32;101935.17;;;22.74;22.20
73242;BME280;65659;49.234;-2.094;2023-01-29T05:18:54;101934.14;;;22.77;22.20
73242;BME280;65659;49.234;-2.094;2023-01-29T05:21:20;101933.71;;;22.52;22.22
73242;BME280;65659;49.234;-2.094;2023-01-29T05:23:45;101936.27;;;22.75;22.22
73242;BME280;65659;49.234;-2.094;2023-01-29T05:26:11;101932.59;;;22.58;22.20
73242;BME280;65659;49.234;-2.094;2023-01-29T05:28:37;101931.95;;;22.60;22.25
73242;BME280;65659;49.234;-2.094;2023-01-29T05:31:03;101933.88;;;22.58;22.24
73242;BME280;65659;49.234;-2.094;2023-01-29T05:33:30;101934.48;;;22.59;22.28
73242;BME280;65659;49.234;-2.094;2023-01-29T05:35:55;101938.01;;;22.61;22.23
73242;BME280;65659;49.234;-2.094;2023-01-29T05:38:20;101936.90;;;22.62;22.20
73242;BME280;65659;49.234;-2.094;2023-01-29T05:40:46;101935.64;;;22.85;22.23
73242;BME280;65659;49.234;-2.094;2023-01-29T05:43:15;101935.83;;;23.04;22.27
73242;BME280;65659;49.234;-2.094;2023-01-29T05:45:37;101932.88;;;22.56;22.27
73242;BME280;65659;49.234;-2.094;2023-01-29T05:48:03;101934.42;;;22.80;22.27
73242;BME280;65659;49.234;-2.094;2023-01-29T05:50:28;101934.07;;;22.79;22.27
73242;BME280;65659;49.234;-2.094;2023-01-29T05:52:56;101931.57;;;22.77;22.29
73242;BME280;65659;49.234;-2.094;2023-01-29T05:55:20;101931.49;;;22.51;22.32
73242;BME280;65659;49.234;-2.094;2023-01-29T05:57:46;101928.74;;;22.75;22.33
73242;BME280;65659;49.234;-2.094;2023-01-29T06:00:12;101925.02;;;22.76;22.31
73242;BME280;65659;49.234;-2.094;2023-01-29T06:02:37;101923.80;;;22.78;22.31
73242;BME280;65659;49.234;-2.094;2023-01-29T06:05:04;101926.37;;;22.52;22.32
73242;BME280;65659;49.234;-2.094;2023-01-29T06:07:29;101931.59;;;22.78;22.34
73242;BME280;65659;49.234;-2.094;2023-01-29T06:09:54;101934.11;;;22.78;22.33
73242;BME280;65659;49.234;-2.094;2023-01-29T06:12:20;101937.49;;;22.55;22.36
73242;BME280;65659;49.234;-2.094;2023-01-29T06:14:46;101934.45;;;23.03;22.35
73242;BME280;65659;49.234;-2.094;2023-01-29T06:17:11;101936.50;;;22.58;22.33
73242;BME280;65659;49.234;-2.094;2023-01-29T06:19:37;101937.20;;;22.58;22.36
73242;BME280;65659;49.234;-2.094;2023-01-29T06:22:03;101930.80;;;22.62;22.32
73242;BME280;65659;49.234;-2.094;2023-01-29T06:24:29;101929.34;;;22.84;22.35
73242;BME280;65659;49.234;-2.094;2023-01-29T06:26:54;101923.09;;;22.61;22.34
73242;BME280;65659;49.234;-2.094;2023-01-29T06:29:20;101918.67;;;22.60;22.34
73242;BME280;65659;49.234;-2.094;2023-01-29T06:31:46;101911.66;;;22.58;22.38
73242;BME280;65659;49.234;-2.094;2023-01-29T06:34:12;101912.97;;;22.57;22.36
73242;BME280;65659;49.234;-2.094;2023-01-29T06:36:37;101911.63;;;22.56;22.38
73242;BME280;65659;49.234;-2.094;2023-01-29T06:39:03;101912.98;;;22.79;22.40
73242;BME280;65659;49.234;-2.094;2023-01-29T06:41:29;101909.42;;;22.60;22.34
73242;BME280;65659;49.234;-2.094;2023-01-29T06:43:55;101907.90;;;22.83;22.37
73242;BME280;65659;49.234;-2.094;2023-01-29T06:46:22;101911.74;;;22.83;22.37
73242;BME280;65659;49.234;-2.094;2023-01-29T06:48:46;101916.13;;;22.83;22.38
73242;BME280;65659;49.234;-2.094;2023-01-29T06:51:12;101912.68;;;22.59;22.39
73242;BME280;65659;49.234;-2.094;2023-01-29T06:53:38;101907.88;;;22.43;22.33
73242;BME280;65659;49.234;-2.094;2023-01-29T06:56:04;101905.49;;;22.66;22.36
73242;BME280;65659;49.234;-2.094;2023-01-29T06:58:29;101908.74;;;22.65;22.36
73242;BME280;65659;49.234;-2.094;2023-01-29T07:01:03;101907.25;;;22.66;22.35
73242;BME280;65659;49.234;-2.094;2023-01-29T07:03:21;101905.07;;;22.20;22.32
73242;BME280;65659;49.234;-2.094;2023-01-29T07:05:50;101908.86;;;22.79;22.29
73242;BME280;65659;49.234;-2.094;2023-01-29T07:08:12;101908.82;;;22.76;22.31
73242;BME280;65659;49.234;-2.094;2023-01-29T07:10:38;101907.42;;;22.47;22.34
73242;BME280;65659;49.234;-2.094;2023-01-29T07:13:03;101901.93;;;22.70;22.36
73242;BME280;65659;49.234;-2.094;2023-01-29T07:15:30;101899.08;;;22.93;22.35
73242;BME280;65659;49.234;-2.094;2023-01-29T07:17:56;101898.81;;;22.69;22.38
73242;BME280;65659;49.234;-2.094;2023-01-29T07:20:21;101898.32;;;22.70;22.37
73242;BME280;65659;49.234;-2.094;2023-01-29T07:22:46;101898.68;;;22.95;22.36
73242;BME280;65659;49.234;-2.094;2023-01-29T07:25:12;101904.13;;;22.70;22.39
73242;BME280;65659;49.234;-2.094;2023-01-29T07:27:38;101903.34;;;22.90;22.43
73242;BME280;65659;49.234;-2.094;2023-01-29T07:30:05;101903.90;;;22.89;22.42
73242;BME280;65659;49.234;-2.094;2023-01-29T07:32:30;101904.82;;;22.64;22.43
73242;BME280;65659;49.234;-2.094;2023-01-29T07:34:55;101909.04;;;22.64;22.43
73242;BME280;65659;49.234;-2.094;2023-01-29T07:37:21;101909.78;;;22.65;22.42
73242;BME280;65659;49.234;-2.094;2023-01-29T07:39:47;101912.05;;;22.65;22.42
73242;BME280;65659;49.234;-2.094;2023-01-29T07:42:13;101911.47;;;22.89;22.45
73242;BME280;65659;49.234;-2.094;2023-01-29T07:44:38;101917.27;;;22.66;22.44
73242;BME280;65659;49.234;-2.094;2023-01-29T07:47:04;101914.42;;;22.68;22.43
73242;BME280;65659;49.234;-2.094;2023-01-29T07:49:30;101911.66;;;22.74;22.40
73242;BME280;65659;49.234;-2.094;2023-01-29T07:51:55;101913.36;;;22.74;22.41
73242;BME280;65659;49.234;-2.094;2023-01-29T07:54:21;101916.59;;;22.98;22.42
73242;BME280;65659;49.234;-2.094;2023-01-29T07:56:47;101917.60;;;22.98;22.41
73242;BME280;65659;49.234;-2.094;2023-01-29T07:59:13;101913.00;;;22.75;22.42
73242;BME280;65659;49.234;-2.094;2023-01-29T08:01:38;101913.51;;;22.77;22.40
73242;BME280;65659;49.234;-2.094;2023-01-29T08:04:04;101913.99;;;22.77;22.37
73242;BME280;65659;49.234;-2.094;2023-01-29T08:06:30;101914.18;;;22.77;22.39
73242;BME280;65659;49.234;-2.094;2023-01-29T08:08:55;101916.38;;;22.75;22.41
73242;BME280;65659;49.234;-2.094;2023-01-29T08:11:21;101918.41;;;22.49;22.45
73242;BME280;65659;49.234;-2.094;2023-01-29T08:13:47;101923.18;;;22.73;22.45
73242;BME280;65659;49.234;-2.094;2023-01-29T08:16:12;101921.36;;;22.74;22.43
73242;BME280;65659;49.234;-2.094;2023-01-29T08:18:38;101919.85;;;22.73;22.48
73242;BME280;65659;49.234;-2.094;2023-01-29T08:21:05;101920.67;;;21.96;22.14
73242;BME280;65659;49.234;-2.094;2023-01-29T08:23:31;101918.63;;;22.84;21.94
73242;BME280;65659;49.234;-2.094;2023-01-29T08:25:55;101916.02;;;23.00;22.01
73242;BME280;65659;49.234;-2.094;2023-01-29T08:28:21;101911.24;;;23.07;22.16
73242;BME280;65659;49.234;-2.094;2023-01-29T08:30:52;101910.98;;;22.75;22.24
73242;BME280;65659;49.234;-2.094;2023-01-29T08:33:13;101908.77;;;22.49;22.26
73242;BME280;65659;49.234;-2.094;2023-01-29T08:35:39;101907.40;;;22.92;22.32
73242;BME280;65659;49.234;-2.094;2023-01-29T08:38:04;101906.69;;;22.90;22.36
73242;BME280;65659;49.234;-2.094;2023-01-29T08:40:31;101909.19;;;22.69;22.31
73242;BME280;65659;49.234;-2.094;2023-01-29T08:42:57;101909.55;;;22.95;22.31
73242;BME280;65659;49.234;-2.094;2023-01-29T08:45:21;101911.04;;;22.72;22.32
73242;BME280;65659;49.234;-2.094;2023-01-29T08:47:48;101908.34;;;22.95;22.33
73242;BME280;65659;49.234;-2.094;2023-01-29T08:50:13;101910.18;;;22.92;22.38
73242;BME280;65659;49.234;-2.094;2023-01-29T08:52:38;101910.17;;;22.87;22.45
73242;BME280;65659;49.234;-2.094;2023-01-29T08:55:05;101910.91;;;22.36;22.48
73242;BME280;65659;49.234;-2.094;2023-01-29T08:57:31;101909.63;;;22.85;22.48
73242;BME280;65659;49.234;-2.094;2023-01-29T08:59:56;101909.12;;;22.81;22.53
73242;BME280;65659;49.234;-2.094;2023-01-29T09:02:22;101907.18;;;22.78;22.55
73242;BME280;65659;49.234;-2.094;2023-01-29T09:04:47;101910.23;;;23.00;22.59
73242;BME280;65659;49.234;-2.094;2023-01-29T09:07:13;101909.46;;;22.52;22.59
73242;BME280;65659;49.234;-2.094;2023-01-29T09:09:39;101909.55;;;22.79;22.55
73242;BME280;65659;49.234;-2.094;2023-01-29T09:12:05;101906.52;;;22.81;22.55
73242;BME280;65659;49.234;-2.094;2023-01-29T09:14:30;101904.02;;;22.80;22.57
73242;BME280;65659;49.234;-2.094;2023-01-29T09:16:56;101905.15;;;22.79;22.57
73242;BME280;65659;49.234;-2.094;2023-01-29T09:19:21;101905.56;;;22.81;22.55
73242;BME280;65659;49.234;-2.094;2023-01-29T09:21:47;101906.92;;;22.58;22.58
73242;BME280;65659;49.234;-2.094;2023-01-29T09:24:13;101904.64;;;22.85;22.53
73242;BME280;65659;49.234;-2.094;2023-01-29T09:26:39;101902.97;;;22.63;22.53
73242;BME280;65659;49.234;-2.094;2023-01-29T09:29:04;101903.63;;;22.88;22.54
73242;BME280;65659;49.234;-2.094;2023-01-29T09:31:31;101898.88;;;22.93;22.49
73242;BME280;65659;49.234;-2.094;2023-01-29T09:33:56;101897.88;;;22.97;22.47
73242;BME280;65659;49.234;-2.094;2023-01-29T09:36:22;101897.43;;;22.98;22.48
73242;BME280;65659;49.234;-2.094;2023-01-29T09:38:47;101896.44;;;22.91;22.55
73242;BME280;65659;49.234;-2.094;2023-01-29T09:41:25;101899.04;;;22.64;22.61
73242;BME280;65659;49.234;-2.094;2023-01-29T09:43:44;101895.65;;;22.87;22.63
73242;BME280;65659;49.234;-2.094;2023-01-29T09:46:06;101893.42;;;22.86;22.65
73242;BME280;65659;49.234;-2.094;2023-01-29T09:48:33;101891.27;;;22.86;22.66
73242;BME280;65659;49.234;-2.094;2023-01-29T09:50:59;101890.27;;;22.86;22.67
73242;BME280;65659;49.234;-2.094;2023-01-29T09:53:28;101892.45;;;22.84;22.71
73242;BME280;65659;49.234;-2.094;2023-01-29T09:55:50;101892.06;;;22.83;22.72
73242;BME280;65659;49.234;-2.094;2023-01-29T09:58:18;101890.73;;;22.84;22.72
73242;BME280;65659;49.234;-2.094;2023-01-29T10:00:46;101889.53;;;22.84;22.72
73242;BME280;65659;49.234;-2.094;2023-01-29T10:03:16;101888.09;;;22.87;22.69
73242;BME280;65659;49.234;-2.094;2023-01-29T10:05:42;101888.07;;;22.87;22.71
73242;BME280;65659;49.234;-2.094;2023-01-29T10:08:12;101890.06;;;22.66;22.69
73242;BME280;65659;49.234;-2.094;2023-01-29T10:10:31;101890.38;;;22.93;22.65
73242;BME280;65659;49.234;-2.094;2023-01-29T10:12:56;101891.39;;;23.00;22.61
73242;BME280;65659;49.234;-2.094;2023-01-29T10:15:25;101890.74;;;22.80;22.58
73242;BME280;65659;49.234;-2.094;2023-01-29T10:17:51;101893.37;;;22.60;22.57
73242;BME280;65659;49.234;-2.094;2023-01-29T10:22:45;101890.16;;;23.05;22.63
73242;BME280;65659;49.234;-2.094;2023-01-29T10:24:58;101889.45;;;22.78;22.64
73242;BME280;65659;49.234;-2.094;2023-01-29T10:27:25;101889.60;;;22.74;22.70
73242;BME280;65659;49.234;-2.094;2023-01-29T10:29:49;101888.09;;;22.48;22.73
73242;BME280;65659;49.234;-2.094;2023-01-29T10:32:16;101889.71;;;22.77;22.70
73242;BME280;65659;49.234;-2.094;2023-01-29T10:34:41;101893.30;;;22.78;22.70
73242;BME280;65659;49.234;-2.094;2023-01-29T10:37:14;101895.42;;;22.98;22.74
73242;BME280;65659;49.234;-2.094;2023-01-29T10:39:36;101896.48;;;22.96;22.78
73242;BME280;65659;49.234;-2.094;2023-01-29T10:42:07;101897.52;;;22.94;22.81
73242;BME280;65659;49.234;-2.094;2023-01-29T10:44:30;101901.24;;;22.95;22.79
73242;BME280;65659;49.234;-2.094;2023-01-29T10:46:59;101904.35;;;22.94;22.82
73242;BME280;65659;49.234;-2.094;2023-01-29T10:49:25;101903.67;;;22.95;22.82
73242;BME280;65659;49.234;-2.094;2023-01-29T10:51:52;101901.00;;;22.72;22.81
73242;BME280;65659;49.234;-2.094;2023-01-29T10:54:17;101901.77;;;22.70;22.82
73242;BME280;65659;49.234;-2.094;2023-01-29T10:56:42;101900.16;;;22.97;22.80
73242;BME280;65659;49.234;-2.094;2023-01-29T10:59:00;101898.41;;;23.02;22.73
73242;BME280;65659;49.234;-2.094;2023-01-29T11:01:23;101897.35;;;22.82;22.76
73242;BME280;65659;49.234;-2.094;2023-01-29T11:03:55;101895.68;;;22.85;22.71
73242;BME280;65659;49.234;-2.094;2023-01-29T11:06:18;101894.28;;;22.66;22.71
73242;BME280;65659;49.234;-2.094;2023-01-29T11:08:45;101892.76;;;22.70;22.67
73242;BME280;65659;49.234;-2.094;2023-01-29T11:11:07;101889.61;;;22.93;22.68
73242;BME280;65659;49.234;-2.094;2023-01-29T11:13:36;101889.22;;;22.63;22.77
73242;BME280;65659;49.234;-2.094;2023-01-29T11:15:57;101885.36;;;23.12;22.78
73242;BME280;65659;49.234;-2.094;2023-01-29T11:18:22;101886.77;;;22.69;22.75
73242;BME280;65659;49.234;-2.094;2023-01-29T11:20:59;101887.80;;;22.95;22.73
73242;BME280;65659;49.234;-2.094;2023-01-29T11:23:22;101886.13;;;22.97;22.74
73242;BME280;65659;49.234;-2.094;2023-01-29T11:25:46;101880.65;;;22.93;22.77
73242;BME280;65659;49.234;-2.094;2023-01-29T11:28:07;101877.73;;;22.88;22.80
73242;BME280;65659;49.234;-2.094;2023-01-29T11:30:34;101876.96;;;22.66;22.82
73242;BME280;65659;49.234;-2.094;2023-01-29T11:33:05;101878.29;;;22.66;22.80
73242;BME280;65659;49.234;-2.094;2023-01-29T11:35:24;101877.00;;;23.12;22.84
73242;BME280;65659;49.234;-2.094;2023-01-29T11:37:48;101873.55;;;23.10;22.86
73242;BME280;65659;49.234;-2.094;2023-01-29T11:40:31;101871.46;;;22.84;22.88
73242;BME280;65659;49.234;-2.094;2023-01-29T11:42:40;101865.88;;;22.83;22.88
73242;BME280;65659;49.234;-2.094;2023-01-29T11:47:32;101862.17;;;22.95;22.80
73242;BME280;65659;49.234;-2.094;2023-01-29T11:49:59;101862.28;;;23.00;22.77
73242;BME280;65659;49.234;-2.094;2023-01-29T11:52:24;101859.19;;;22.80;22.74
73242;BME280;65659;49.234;-2.094;2023-01-29T11:54:51;101859.34;;;22.79;22.78
73242;BME280;65659;49.234;-2.094;2023-01-29T11:57:27;101853.10;;;22.78;22.81
73242;BME280;65659;49.234;-2.094;2023-01-29T11:59:41;101854.68;;;22.76;22.82
73242;BME280;65659;49.234;-2.094;2023-01-29T12:02:18;101853.58;;;22.97;22.87
73242;BME280;65659;49.234;-2.094;2023-01-29T12:04:32;101854.31;;;22.97;22.91
73242;BME280;65659;49.234;-2.094;2023-01-29T12:06:57;101850.03;;;22.95;22.92
73242;BME280;65659;49.234;-2.094;2023-01-29T12:09:25;101849.78;;;22.92;22.95
73242;BME280;65659;49.234;-2.094;2023-01-29T12:11:49;101846.62;;;23.14;22.97
73242;BME280;65659;49.234;-2.094;2023-01-29T12:14:26;101843.40;;;23.12;23.03
73242;BME280;65659;49.234;-2.094;2023-01-29T12:16:46;101836.81;;;23.13;23.02
73242;BME280;65659;49.234;-2.094;2023-01-29T12:19:10;101830.89;;;23.12;23.01
73242;BME280;65659;49.234;-2.094;2023-01-29T12:21:37;101824.71;;;22.66;23.03
73242;BME280;65659;49.234;-2.094;2023-01-29T12:24:01;101817.74;;;22.88;23.03
73242;BME280;65659;49.234;-2.094;2023-01-29T12:26:28;101815.82;;;22.87;23.07
73242;BME280;65659;49.234;-2.094;2023-01-29T12:28:54;101811.60;;;23.13;23.05
73242;BME280;65659;49.234;-2.094;2023-01-29T12:31:22;101808.12;;;23.12;23.07
73242;BME280;65659;49.234;-2.094;2023-01-29T12:33:47;101808.59;;;22.65;23.02
73242;BME280;65659;49.234;-2.094;2023-01-29T12:36:11;101803.33;;;22.68;23.01